Terminal Aerodrome Forecast
Issued by NWS

Home | Current Version | Previous Version | Text Only | Print | Product List | Glossary On
Versions: 1 2 3 4 5 6 7 8 9 10 11 12 13
000
FTUS43 KTOP 302300
TAFFOE
TAF
KFOE 302325Z 3100/3124 34013KT P6SM SKC
     FM310600 36015G24KT P6SM BKN023
     FM311400 36016G28KT P6SM SKC=

USA.gov is the U.S. government's official web portal to all federal, state and local government web resources and services.